createdAt,value
2023-03-18T00:00:16.926Z,6.71
2023-03-18T00:03:05.152Z,6.69
2023-03-18T00:05:34.817Z,6.65
2023-03-18T00:08:04.906Z,6.63
2023-03-18T00:10:35.360Z,6.61
2023-03-18T00:13:04.656Z,6.60
2023-03-18T00:15:32.775Z,6.60
2023-03-18T00:18:00.952Z,6.60
2023-03-18T00:20:38.843Z,6.62
2023-03-18T00:23:08.846Z,6.64
2023-03-18T00:25:39.109Z,6.62
2023-03-18T00:28:08.147Z,6.63
2023-03-18T00:30:39.454Z,6.64
2023-03-18T00:33:10.747Z,6.66
2023-03-18T00:35:39.544Z,6.69
2023-03-18T00:38:10.065Z,6.70
2023-03-18T00:40:43.616Z,6.74
2023-03-18T00:43:13.014Z,6.76
2023-03-18T00:45:42.876Z,6.77
2023-03-18T00:48:11.928Z,6.80
2023-03-18T00:50:41.726Z,6.82
2023-03-18T00:53:09.906Z,6.82
2023-03-18T00:55:38.177Z,6.84
2023-03-18T00:58:06.670Z,6.84
2023-03-18T01:00:36.749Z,6.86
2023-03-18T01:03:06.685Z,6.86
2023-03-18T01:05:36.200Z,6.88
2023-03-18T01:08:05.218Z,6.89
2023-03-18T01:10:34.506Z,6.89
2023-03-18T01:13:03.077Z,6.89
2023-03-18T01:15:31.360Z,6.91
2023-03-18T01:17:59.939Z,6.88
2023-03-18T01:20:29.622Z,6.88
2023-03-18T01:22:58.842Z,6.85
2023-03-18T01:25:27.542Z,6.84
2023-03-18T01:27:56.129Z,6.82
2023-03-18T01:30:24.547Z,6.83
2023-03-18T01:32:54.221Z,6.84
2023-03-18T01:35:24.086Z,6.85
2023-03-18T01:37:53.599Z,6.87
2023-03-18T01:40:22.823Z,6.87
2023-03-18T01:43:19.020Z,6.87
2023-03-18T01:45:53.758Z,6.90
2023-03-18T01:48:25.533Z,6.89
2023-03-18T01:51:02.726Z,6.88
2023-03-18T01:53:46.574Z,6.87
2023-03-18T01:56:21.116Z,6.86
2023-03-18T01:59:00.026Z,6.85
2023-03-18T02:02:04.137Z,6.82
2023-03-18T02:04:41.332Z,6.75
2023-03-18T02:07:22.943Z,6.70
2023-03-18T02:09:52.584Z,6.68
2023-03-18T02:12:33.806Z,6.66
2023-03-18T02:15:06.866Z,6.67
2023-03-18T02:17:47.003Z,6.68
2023-03-18T02:20:21.360Z,6.70
2023-03-18T02:22:57.773Z,6.71
2023-03-18T02:25:48.221Z,6.75
2023-03-18T02:28:24.923Z,6.74
2023-03-18T02:30:57.778Z,6.76
2023-03-18T02:33:32.298Z,6.77
2023-03-18T02:36:08.462Z,6.77
2023-03-18T02:38:44.928Z,6.79
2023-03-18T02:41:24.684Z,6.78
2023-03-18T02:43:54.468Z,6.80
2023-03-18T02:46:31.085Z,6.81
2023-03-18T02:49:07.745Z,6.82
2023-03-18T02:51:37.435Z,6.81
2023-03-18T02:54:15.497Z,6.81
2023-03-18T02:56:44.747Z,6.80
2023-03-18T02:59:13.949Z,6.75
2023-03-18T03:01:44.898Z,6.78
2023-03-18T03:04:14.910Z,6.76
2023-03-18T03:06:45.135Z,6.76
2023-03-18T03:09:16.780Z,6.76
2023-03-18T03:11:47.182Z,6.75
2023-03-18T03:14:19.381Z,6.73
2023-03-18T03:16:48.776Z,6.74
2023-03-18T03:19:18.185Z,6.74
2023-03-18T03:21:46.358Z,6.73
2023-03-18T03:24:14.734Z,6.69
2023-03-18T03:26:42.914Z,6.62
2023-03-18T03:29:13.049Z,6.53
2023-03-18T03:31:41.727Z,6.44
2023-03-18T03:34:09.997Z,6.34
2023-03-18T03:36:38.274Z,6.24
2023-03-18T03:39:06.785Z,6.19
2023-03-18T03:41:36.490Z,6.13
2023-03-18T03:44:05.255Z,6.09
2023-03-18T03:46:33.462Z,6.11
2023-03-18T03:49:01.900Z,6.13
2023-03-18T03:51:30.587Z,6.17
2023-03-18T03:53:59.275Z,6.20
2023-03-18T03:56:28.579Z,6.23
2023-03-18T03:58:57.875Z,6.24
2023-03-18T04:01:30.473Z,6.23
2023-03-18T04:04:00.912Z,6.21
2023-03-18T04:06:30.280Z,6.23
2023-03-18T04:09:03.685Z,6.23
2023-03-18T04:11:32.979Z,6.26
2023-03-18T04:14:02.224Z,6.24
2023-03-18T04:16:30.516Z,6.23
2023-03-18T04:18:59.441Z,6.21
2023-03-18T04:21:27.644Z,6.20
2023-03-18T04:23:57.547Z,6.18
2023-03-18T04:26:26.431Z,6.17
2023-03-18T04:28:55.006Z,6.16
2023-03-18T04:31:24.052Z,6.18
2023-03-18T04:33:52.369Z,6.19
2023-03-18T04:36:21.056Z,6.20
2023-03-18T04:38:49.863Z,6.22
2023-03-18T04:41:18.645Z,6.22
2023-03-18T04:43:47.846Z,6.22
2023-03-18T04:46:16.899Z,6.22
2023-03-18T04:48:46.076Z,6.24
2023-03-18T04:51:15.633Z,6.22
2023-03-18T04:53:44.633Z,6.20
2023-03-18T04:56:12.879Z,6.20
2023-03-18T04:58:48.446Z,6.21
2023-03-18T05:01:21.325Z,6.19
2023-03-18T05:03:50.654Z,6.14
2023-03-18T05:06:25.561Z,6.12
2023-03-18T05:09:00.774Z,6.09
2023-03-18T05:11:33.375Z,6.06
2023-03-18T05:14:08.318Z,6.03
2023-03-18T05:16:43.406Z,6.00
2023-03-18T05:19:12.343Z,5.98
2023-03-18T05:21:46.454Z,5.97
2023-03-18T05:24:15.158Z,5.96
2023-03-18T05:26:43.744Z,5.95
2023-03-18T05:29:12.117Z,5.91
2023-03-18T05:31:47.665Z,5.88
2023-03-18T05:34:17.163Z,5.86
2023-03-18T05:36:45.853Z,5.84
2023-03-18T05:39:14.246Z,5.84
2023-03-18T05:41:42.508Z,5.86
2023-03-18T05:44:11.908Z,5.92
2023-03-18T05:46:40.991Z,5.97
2023-03-18T05:49:20.845Z,6.00
2023-03-18T05:52:10.398Z,6.03
2023-03-18T05:54:42.795Z,6.04
2023-03-18T05:57:13.941Z,6.12
2023-03-18T05:59:44.218Z,6.18
2023-03-18T06:02:13.188Z,6.27
2023-03-18T06:04:41.651Z,6.36
2023-03-18T06:07:10.528Z,6.48
2023-03-18T06:09:39.343Z,6.58
2023-03-18T06:12:08.516Z,6.69
2023-03-18T06:14:37.521Z,6.80
2023-03-18T06:17:07.539Z,6.90
2023-03-18T06:19:36.014Z,6.97
2023-03-18T06:22:05.079Z,7.01
2023-03-18T06:24:33.700Z,7.09
2023-03-18T06:27:02.578Z,7.20
2023-03-18T06:29:32.078Z,7.30
2023-03-18T06:32:08.403Z,7.40
2023-03-18T06:34:38.177Z,7.48
2023-03-18T06:37:07.971Z,7.55
2023-03-18T06:39:38.138Z,7.64
2023-03-18T06:42:10.624Z,7.73
2023-03-18T06:44:51.372Z,7.84
2023-03-18T06:47:30.271Z,7.96
2023-03-18T06:50:00.584Z,8.08
2023-03-18T06:52:32.758Z,8.20
2023-03-18T06:55:09.721Z,8.32
2023-03-18T06:57:41.816Z,8.46
2023-03-18T07:00:11.820Z,8.58
2023-03-18T07:02:41.332Z,8.71
2023-03-18T07:05:12.943Z,8.82
2023-03-18T07:07:42.290Z,8.94
2023-03-18T07:10:21.998Z,9.06
2023-03-18T07:12:52.822Z,9.19
2023-03-18T07:15:23.942Z,9.31
2023-03-18T07:17:54.958Z,9.44
2023-03-18T07:20:24.305Z,9.55
2023-03-18T07:22:53.555Z,9.67
2023-03-18T07:25:23.262Z,9.77
2023-03-18T07:27:52.459Z,9.87
2023-03-18T07:30:25.681Z,10.00
2023-03-18T07:32:57.444Z,10.14
2023-03-18T07:35:28.005Z,10.27
2023-03-18T07:37:57.845Z,10.42
2023-03-18T07:40:26.857Z,10.52
2023-03-18T07:42:56.144Z,10.69
2023-03-18T07:45:24.727Z,10.85
2023-03-18T07:47:53.312Z,11.01
2023-03-18T07:50:22.088Z,11.13
2023-03-18T07:52:50.369Z,11.23
2023-03-18T07:55:18.852Z,11.35
2023-03-18T07:57:47.637Z,11.45
2023-03-18T08:00:16.892Z,11.53
2023-03-18T08:02:45.463Z,11.61
2023-03-18T08:05:15.132Z,11.68
2023-03-18T08:07:45.144Z,11.75
2023-03-18T08:10:16.004Z,11.84
2023-03-18T08:12:52.665Z,11.95
2023-03-18T08:15:23.494Z,12.04
2023-03-18T08:17:56.252Z,12.12
2023-03-18T08:20:24.823Z,12.24
2023-03-18T08:22:54.136Z,12.33
2023-03-18T08:25:24.043Z,12.42
2023-03-18T08:27:53.742Z,12.48
2023-03-18T08:30:25.462Z,12.56
2023-03-18T08:32:54.627Z,12.65
2023-03-18T08:35:23.819Z,12.77
2023-03-18T08:37:52.492Z,12.92
2023-03-18T08:40:21.384Z,13.04
2023-03-18T08:42:49.870Z,13.11
2023-03-18T08:45:19.164Z,13.23
2023-03-18T08:47:47.541Z,13.36
2023-03-18T08:50:16.336Z,13.50
2023-03-18T08:52:46.704Z,13.54
2023-03-18T08:55:16.808Z,13.73
2023-03-18T08:57:45.526Z,13.86
2023-03-18T09:00:15.571Z,13.99
2023-03-18T09:02:44.191Z,14.08
2023-03-18T09:05:12.647Z,14.17
2023-03-18T09:07:42.873Z,14.26
2023-03-18T09:10:18.426Z,14.35
2023-03-18T09:12:48.078Z,14.36
2023-03-18T09:15:20.508Z,14.40
2023-03-18T09:18:03.755Z,14.41
2023-03-18T09:20:37.927Z,14.48
2023-03-18T09:23:07.457Z,14.54
2023-03-18T09:25:36.276Z,14.60
2023-03-18T09:28:05.440Z,14.70
2023-03-18T09:30:34.176Z,14.82
2023-03-18T09:33:02.875Z,14.93
2023-03-18T09:35:32.101Z,15.05
2023-03-18T09:38:00.911Z,15.17
2023-03-18T09:40:33.172Z,15.25
2023-03-18T09:43:23.143Z,15.33
2023-03-18T09:46:29.528Z,15.42
2023-03-18T09:49:10.494Z,15.49
2023-03-18T09:51:47.263Z,15.54
2023-03-18T09:54:39.714Z,15.61
2023-03-18T09:57:24.364Z,15.67
2023-03-18T10:00:05.759Z,15.67
2023-03-18T10:02:45.689Z,15.67
2023-03-18T10:05:47.380Z,15.74
2023-03-18T10:08:48.618Z,15.80
2023-03-18T10:11:24.365Z,15.87
2023-03-18T10:14:17.935Z,15.93
2023-03-18T10:16:55.427Z,15.96
2023-03-18T10:19:25.223Z,16.00
2023-03-18T10:22:38.253Z,16.04
2023-03-18T10:25:25.197Z,16.02
2023-03-18T10:28:12.304Z,16.06
2023-03-18T10:31:22.718Z,16.08
2023-03-18T10:34:00.362Z,16.10
2023-03-18T10:36:40.427Z,16.11
2023-03-18T10:39:20.113Z,16.12
2023-03-18T10:41:50.684Z,16.14
2023-03-18T10:44:37.106Z,16.22
2023-03-18T10:47:08.658Z,16.34
2023-03-18T10:49:43.202Z,16.40
2023-03-18T10:52:18.680Z,16.45
2023-03-18T10:54:50.868Z,16.52
2023-03-18T10:57:21.891Z,16.57
2023-03-18T10:59:52.330Z,16.62
2023-03-18T11:02:47.217Z,16.63
2023-03-18T11:05:36.641Z,16.65
2023-03-18T11:08:09.224Z,16.68
2023-03-18T11:10:47.288Z,16.72
2023-03-18T11:13:20.834Z,16.76
2023-03-18T11:16:00.034Z,16.83
2023-03-18T11:18:38.135Z,16.92
2023-03-18T11:21:19.012Z,16.99
2023-03-18T11:27:09.211Z,17.16
2023-03-18T11:29:46.672Z,17.19
2023-03-18T11:32:36.799Z,17.29
2023-03-18T11:35:23.754Z,17.38
2023-03-18T11:38:16.553Z,17.45
2023-03-18T11:40:50.709Z,17.52
2023-03-18T11:43:26.914Z,17.57
2023-03-18T11:46:21.323Z,17.57
2023-03-18T11:48:52.442Z,17.64
2023-03-18T11:51:36.313Z,17.71
2023-03-18T11:54:18.626Z,17.75
2023-03-18T11:56:52.841Z,17.78
2023-03-18T11:59:33.111Z,17.82
2023-03-18T12:02:26.348Z,17.87
2023-03-18T12:05:43.962Z,17.92
2023-03-18T12:08:48.925Z,17.95
2023-03-18T12:11:58.188Z,18.00
2023-03-18T12:14:28.590Z,17.99
2023-03-18T12:17:16.717Z,17.99
2023-03-18T12:20:25.970Z,17.99
2023-03-18T12:23:06.841Z,18.06
2023-03-18T12:26:18.051Z,18.11
2023-03-18T12:29:09.854Z,18.15
2023-03-18T12:31:57.556Z,18.11
2023-03-18T12:34:37.439Z,18.06
2023-03-18T12:37:32.326Z,18.04
2023-03-18T12:40:35.655Z,18.04
2023-03-18T12:43:04.878Z,18.00
2023-03-18T12:45:40.112Z,17.97
2023-03-18T12:48:18.692Z,17.98
2023-03-18T12:50:54.695Z,18.03
2023-03-18T12:53:33.783Z,18.10
2023-03-18T12:56:13.843Z,18.16
2023-03-18T12:58:50.709Z,18.22
2023-03-18T13:02:19.467Z,18.28
2023-03-18T13:04:56.875Z,18.33
2023-03-18T13:07:38.984Z,18.37
2023-03-18T13:10:22.576Z,18.37
2023-03-18T13:13:01.658Z,18.36
2023-03-18T13:15:39.182Z,18.34
2023-03-18T13:18:20.962Z,18.34
2023-03-18T13:20:53.080Z,18.36
2023-03-18T13:23:39.576Z,18.40
2023-03-18T13:26:22.412Z,18.41
2023-03-18T13:29:26.145Z,18.43
2023-03-18T13:32:07.130Z,18.37
2023-03-18T13:35:18.183Z,18.35
2023-03-18T13:37:50.657Z,18.38
2023-03-18T13:40:39.952Z,18.41
2023-03-18T13:43:15.996Z,18.43
2023-03-18T13:45:51.589Z,18.42
2023-03-18T13:48:32.166Z,18.41
2023-03-18T13:51:41.064Z,18.43
2023-03-18T13:54:18.820Z,18.46
2023-03-18T13:56:52.681Z,18.43
2023-03-18T13:59:33.355Z,18.40
2023-03-18T14:02:27.289Z,18.37
2023-03-18T14:05:00.395Z,18.36
2023-03-18T14:07:29.770Z,18.34
2023-03-18T14:10:17.229Z,18.32
2023-03-18T14:12:48.397Z,18.34
2023-03-18T14:15:36.749Z,18.31
2023-03-18T14:18:19.642Z,18.26
2023-03-18T14:20:53.850Z,18.24
2023-03-18T14:23:37.780Z,18.19
2023-03-18T14:26:20.071Z,18.14
2023-03-18T14:29:17.226Z,18.09
2023-03-18T14:31:45.351Z,18.02
2023-03-18T14:34:15.113Z,17.99
2023-03-18T14:36:52.912Z,17.99
2023-03-18T14:39:46.637Z,17.98
2023-03-18T14:42:34.934Z,17.97
2023-03-18T14:45:25.740Z,17.94
2023-03-18T14:47:57.194Z,17.91
2023-03-18T14:50:44.613Z,17.88
2023-03-18T14:53:17.265Z,17.84
2023-03-18T14:55:45.808Z,17.79
2023-03-18T14:58:24.505Z,17.73
2023-03-18T15:01:04.958Z,17.70
2023-03-18T15:03:34.594Z,17.63
2023-03-18T15:06:07.787Z,17.60
2023-03-18T15:08:47.763Z,17.56
2023-03-18T15:11:21.614Z,17.48
2023-03-18T15:13:57.312Z,17.44
2023-03-18T15:16:33.300Z,17.43
2023-03-18T15:19:04.124Z,17.35
2023-03-18T15:21:35.347Z,17.34
2023-03-18T15:24:07.822Z,17.31
2023-03-18T15:26:41.729Z,17.28
2023-03-18T15:29:29.045Z,17.25
2023-03-18T15:32:19.618Z,17.18
2023-03-18T15:34:58.438Z,17.12
2023-03-18T15:37:33.905Z,17.08
2023-03-18T15:40:31.512Z,17.03
2023-03-18T15:43:19.281Z,16.96
2023-03-18T15:45:54.779Z,16.91
2023-03-18T15:48:45.124Z,16.86
2023-03-18T15:51:48.306Z,16.80
2023-03-18T15:54:28.743Z,16.74
2023-03-18T15:56:58.910Z,16.68
2023-03-18T15:59:31.474Z,16.62
2023-03-18T16:02:00.880Z,16.56
2023-03-18T16:04:32.805Z,16.51
2023-03-18T16:07:01.221Z,16.47
2023-03-18T16:09:30.128Z,16.43
2023-03-18T16:12:02.545Z,16.35
2023-03-18T16:14:43.146Z,16.28
2023-03-18T16:17:19.568Z,16.20
2023-03-18T16:19:54.490Z,16.13
2023-03-18T16:22:23.536Z,16.05
2023-03-18T16:24:52.468Z,15.98
2023-03-18T16:27:36.081Z,15.91
2023-03-18T16:30:08.546Z,15.82
2023-03-18T16:32:36.983Z,15.71
2023-03-18T16:35:06.111Z,15.59
2023-03-18T16:37:34.921Z,15.47
2023-03-18T16:40:03.376Z,15.37
2023-03-18T16:42:31.954Z,15.26
2023-03-18T16:45:00.471Z,15.15
2023-03-18T16:47:29.146Z,15.08
2023-03-18T16:49:58.648Z,15.03
2023-03-18T16:52:27.015Z,14.96
2023-03-18T16:54:55.408Z,14.84
2023-03-18T16:57:24.293Z,14.71
2023-03-18T16:59:56.857Z,14.57
2023-03-18T17:02:35.583Z,14.41
2023-03-18T17:05:04.427Z,14.27
2023-03-18T17:07:37.184Z,14.12
2023-03-18T17:10:06.486Z,13.99
2023-03-18T17:12:36.175Z,13.89
2023-03-18T17:15:06.789Z,13.82
2023-03-18T17:17:36.412Z,13.72
2023-03-18T17:20:16.219Z,13.63
2023-03-18T17:22:45.353Z,13.54
2023-03-18T17:25:14.865Z,13.45
2023-03-18T17:27:54.406Z,13.33
2023-03-18T17:30:29.956Z,13.16
2023-03-18T17:32:59.004Z,13.03
2023-03-18T17:35:28.250Z,12.92
2023-03-18T17:37:58.158Z,12.81
2023-03-18T17:40:30.434Z,12.73
2023-03-18T17:42:59.198Z,12.64
2023-03-18T17:45:28.014Z,12.56
2023-03-18T17:48:22.598Z,12.48
2023-03-18T17:51:02.044Z,12.41
2023-03-18T17:53:45.794Z,12.33
2023-03-18T17:56:22.525Z,12.25
2023-03-18T17:58:53.699Z,12.18
2023-03-18T18:01:27.723Z,12.10
2023-03-18T18:03:59.075Z,12.06
2023-03-18T18:06:29.903Z,12.00
2023-03-18T18:09:00.646Z,11.95
2023-03-18T18:11:32.011Z,11.89
2023-03-18T18:14:29.330Z,11.82
2023-03-18T18:16:59.844Z,11.76
2023-03-18T18:19:29.993Z,11.71
2023-03-18T18:22:03.605Z,11.68
2023-03-18T18:24:34.679Z,11.66
2023-03-18T18:27:04.867Z,11.64
2023-03-18T18:29:35.409Z,11.62
2023-03-18T18:32:05.249Z,11.59
2023-03-18T18:34:34.811Z,11.56
2023-03-18T18:37:04.935Z,11.54
2023-03-18T18:39:35.182Z,11.51
2023-03-18T18:42:05.121Z,11.48
2023-03-18T18:44:34.944Z,11.45
2023-03-18T18:47:04.715Z,11.41
2023-03-18T18:49:35.107Z,11.38
2023-03-18T18:52:06.816Z,11.34
2023-03-18T18:54:36.741Z,11.31
2023-03-18T18:57:06.554Z,11.26
2023-03-18T18:59:36.156Z,11.21
2023-03-18T19:02:44.078Z,11.17
2023-03-18T19:05:14.515Z,11.10
2023-03-18T19:07:47.162Z,11.04
2023-03-18T19:10:19.590Z,10.99
2023-03-18T19:12:50.366Z,10.93
2023-03-18T19:15:21.864Z,10.87
2023-03-18T19:17:51.745Z,10.83
2023-03-18T19:20:30.176Z,10.76
2023-03-18T19:22:59.872Z,10.73
2023-03-18T19:25:29.287Z,10.69
2023-03-18T19:28:02.221Z,10.62
2023-03-18T19:30:32.841Z,10.60
2023-03-18T19:33:03.073Z,10.59
2023-03-18T19:35:32.326Z,10.58
2023-03-18T19:38:02.340Z,10.56
2023-03-18T19:40:34.331Z,10.54
2023-03-18T19:43:03.096Z,10.51
2023-03-18T19:45:33.399Z,10.46
2023-03-18T19:48:03.211Z,10.40
2023-03-18T19:50:33.352Z,10.35
2023-03-18T19:53:06.747Z,10.29
2023-03-18T19:55:36.357Z,10.23
2023-03-18T19:58:06.216Z,10.17
2023-03-18T20:00:35.299Z,10.12
2023-03-18T20:03:12.359Z,10.07
2023-03-18T20:05:44.906Z,10.04
2023-03-18T20:08:19.323Z,10.02
2023-03-18T20:10:48.818Z,10.00
2023-03-18T20:13:18.763Z,9.98
2023-03-18T20:15:47.672Z,9.96
2023-03-18T20:18:18.384Z,9.91
2023-03-18T20:20:52.132Z,9.86
2023-03-18T20:23:29.373Z,9.84
2023-03-18T20:26:25.366Z,9.81
2023-03-18T20:28:57.404Z,9.78
2023-03-18T20:31:30.564Z,9.75
2023-03-18T20:34:02.159Z,9.73
2023-03-18T20:36:34.087Z,9.71
2023-03-18T20:39:06.662Z,9.66
2023-03-18T20:41:38.722Z,9.60
2023-03-18T20:44:13.977Z,9.54
2023-03-18T20:46:48.375Z,9.50
2023-03-18T20:49:19.658Z,9.49
2023-03-18T20:51:51.674Z,9.49
2023-03-18T20:54:33.024Z,9.49
2023-03-18T20:57:04.100Z,9.48
2023-03-18T20:59:37.903Z,9.48
2023-03-18T21:02:30.992Z,9.48
2023-03-18T21:05:03.264Z,9.47
2023-03-18T21:07:34.796Z,9.47
2023-03-18T21:10:05.261Z,9.45
2023-03-18T21:12:35.968Z,9.44
2023-03-18T21:15:05.282Z,9.40
2023-03-18T21:17:34.155Z,9.34
2023-03-18T21:20:19.272Z,9.27
2023-03-18T21:22:51.622Z,9.21
2023-03-18T21:25:23.742Z,9.17
2023-03-18T21:27:53.814Z,9.11
2023-03-18T21:30:24.542Z,9.04
2023-03-18T21:32:53.842Z,8.98
2023-03-18T21:35:26.048Z,8.93
2023-03-18T21:37:55.624Z,8.88
2023-03-18T21:40:26.616Z,8.85
2023-03-18T21:42:56.160Z,8.82
2023-03-18T21:45:25.036Z,8.76
2023-03-18T21:47:53.954Z,8.68
2023-03-18T21:50:26.488Z,8.60
2023-03-18T21:52:55.625Z,8.51
2023-03-18T21:55:26.351Z,8.42
2023-03-18T21:57:55.228Z,8.32
2023-03-18T22:00:24.302Z,8.24
2023-03-18T22:02:53.292Z,8.15
2023-03-18T22:05:24.040Z,8.08
2023-03-18T22:07:52.954Z,7.99
2023-03-18T22:10:23.524Z,7.94
2023-03-18T22:12:52.196Z,7.92
2023-03-18T22:15:38.717Z,7.89
2023-03-18T22:18:08.020Z,7.88
2023-03-18T22:20:37.399Z,7.85
2023-03-18T22:23:18.019Z,7.82
2023-03-18T22:25:49.736Z,7.77
2023-03-18T22:28:18.690Z,7.72
2023-03-18T22:30:52.207Z,7.68
2023-03-18T22:33:33.576Z,7.61
2023-03-18T22:36:02.797Z,7.55
2023-03-18T22:38:32.261Z,7.50
2023-03-18T22:41:00.780Z,7.48
2023-03-18T22:43:35.418Z,7.48
2023-03-18T22:46:06.501Z,7.49
2023-03-18T22:48:35.458Z,7.51
2023-03-18T22:51:05.026Z,7.52
2023-03-18T22:53:37.645Z,7.52
2023-03-18T22:56:11.481Z,7.53
2023-03-18T22:58:40.080Z,7.52
2023-03-18T23:01:14.188Z,7.52
2023-03-18T23:03:45.036Z,7.53
2023-03-18T23:06:20.202Z,7.51
2023-03-18T23:08:48.640Z,7.48
2023-03-18T23:11:17.855Z,7.41
2023-03-18T23:13:50.843Z,7.36
2023-03-18T23:16:22.417Z,7.34
2023-03-18T23:18:51.303Z,7.33
2023-03-18T23:21:22.533Z,7.33
2023-03-18T23:23:52.759Z,7.31
2023-03-18T23:26:21.793Z,7.27
2023-03-18T23:28:55.525Z,7.20
2023-03-18T23:31:24.053Z,7.14
2023-03-18T23:33:52.307Z,7.07
2023-03-18T23:36:20.828Z,7.00
2023-03-18T23:38:49.360Z,6.94
2023-03-18T23:41:17.636Z,6.88
2023-03-18T23:43:47.563Z,6.83
2023-03-18T23:46:16.483Z,6.79
2023-03-18T23:48:44.936Z,6.74
2023-03-18T23:51:13.349Z,6.71
2023-03-18T23:53:42.500Z,6.69
2023-03-18T23:56:12.019Z,6.64
2023-03-18T23:58:40.697Z,6.57
